WetterOnline ( http://www.wetteronline.de )

Wetter aktuell Teltow

Aktuelles Wetter: Potsdam (100m)

6-stündlich | Neueste Meldungen
Ortszeit Temperatur Wetter
Mi, 20.02. 13:00 10.1° C wolkig
Mi, 20.02. 7:00 5.6° C bedeckt
Mi, 20.02. 1:00 5.5° C bedeckt
Di, 19.02. 19:00 8.4° C bewölkt
Di, 19.02. 13:00 9.1° C bedeckt
Di, 19.02. 7:00 3.0° C leicht bewölkt
Di, 19.02. 1:00 5.0° C leicht bewölkt
Mo, 18.02. 19:00 9.4° C fast wolkenlos
Ortszeit Temperatur Wetter
Mi, 20.02. 14:30 9.8° C wolkig
Mi, 20.02. 14:20 9.8° C wolkig
Mi, 20.02. 14:10 10.2° C wolkig
Mi, 20.02. 14:00 10.3° C wolkig
Mi, 20.02. 13:50 10.3° C -
Mi, 20.02. 13:40 10.8° C -
Mi, 20.02. 13:30 9.8° C wolkig
Mi, 20.02. 13:00 10.1° C wolkig
Mi, 20.02. 12:30 9.4° C wolkig
Mi, 20.02. 12:00 8.8° C wolkig
Mi, 20.02. 11:30 8.4° C bewölkt
Ortszeit Relative Feuchte Sichtweite
Mi, 20.02. 13:00 64% 30 km
Mi, 20.02. 7:00 81% 40 km
Mi, 20.02. 1:00 88% 40 km
Di, 19.02. 19:00 60% 40 km
Di, 19.02. 13:00 67% 20 km
Di, 19.02. 7:00 79% 25 km
Di, 19.02. 1:00 73% 28 km
Mo, 18.02. 19:00 58% 35 km
Ortszeit Relative Feuchte Sichtweite
Mi, 20.02. 14:30 61% 35 km
Mi, 20.02. 14:20 61% -
Mi, 20.02. 14:10 59% -
Mi, 20.02. 14:00 58% 30 km
Mi, 20.02. 13:50 58% -
Mi, 20.02. 13:40 61% -
Mi, 20.02. 13:30 64% 30 km
Mi, 20.02. 13:00 64% 30 km
Mi, 20.02. 12:30 67% 30 km
Mi, 20.02. 12:00 69% 30 km
Mi, 20.02. 11:30 72% 30 km
Ortszeit Niederschlagsmenge Niederschlagsart
Mi, 20.02. 13:00 0.0 l/m2 in 6 Std. -
Mi, 20.02. 7:00 2 l/m2 in 12 Std. -
Mi, 20.02. 1:00 2 l/m2 in 6 Std. Regen
Di, 19.02. 19:00 0.0 l/m2 in 12 Std. -
Di, 19.02. 13:00 0.0 l/m2 in 6 Std. -
Di, 19.02. 7:00 0.0 l/m2 in 12 Std. -
Di, 19.02. 1:00 0.0 l/m2 in 6 Std. -
Mo, 18.02. 19:00 0.0 l/m2 in 12 Std. -
Ortszeit Niederschlagsmenge Niederschlagsart
Mi, 20.02. 14:30 0.0 l/m2 in 1 Std. -
Mi, 20.02. 14:20 keine Meldung -
Mi, 20.02. 14:10 keine Meldung -
Mi, 20.02. 14:00 0.0 l/m2 in 1 Std. -
Mi, 20.02. 13:50 keine Meldung -
Mi, 20.02. 13:40 keine Meldung -
Mi, 20.02. 13:30 0.0 l/m2 in 1 Std. -
Mi, 20.02. 13:00 0.0 l/m2 in 1 Std. -
Mi, 20.02. 12:30 0.0 l/m2 in 1 Std. -
Mi, 20.02. 12:00 0.0 l/m2 in 1 Std. -
Mi, 20.02. 11:30 0.0 l/m2 in 1 Std. -
Ortszeit Stärke Spitze Richtung
km/h Bft. km/h Grad Sektor
Mi, 20.02. 13:00 19 3 37 250° W
Mi, 20.02. 7:00 18 3 43 260° W
Mi, 20.02. 1:00 22 4 50 260° W
Di, 19.02. 19:00 20 4 43 250° W
Di, 19.02. 13:00 22 4 43 260° W
Di, 19.02. 7:00 22 4 32 230° SW
Di, 19.02. 1:00 22 4 33 220° SW
Mo, 18.02. 19:00 14 3 22 170° S
Ortszeit Stärke Spitze Richtung
km/h Bft. km/h Grad Sektor
Mi, 20.02. 14:30 22 4 36 260° W
Mi, 20.02. 14:20 22 4 - 260° W
Mi, 20.02. 14:10 26 4 - 270° W
Mi, 20.02. 14:00 22 4 36 260° W
Mi, 20.02. 13:50 22 4 - 260° W
Mi, 20.02. 13:40 20 4 - 260° W
Mi, 20.02. 13:30 17 3 33 260° W
Mi, 20.02. 13:00 19 3 35 250° W
Mi, 20.02. 12:30 20 4 31 260° W
Mi, 20.02. 12:00 18 3 29 260° W
Mi, 20.02. 11:30 14 3 29 260° W
Ortszeit Untergrenze Bedeckung Gattung
total tief tief mittel hoch
Mi, 20.02. 13:00 720 m 6/8 4/8 Cu Ac Ci
Mi, 20.02. 7:00 1500 m 8/8 8/8 Sc - -
Mi, 20.02. 1:00 1500 m 8/8 8/8 Sc - -
Di, 19.02. 19:00 1350 m 7/8 7/8 Sc - -
Di, 19.02. 13:00 720 m 8/8 7/8 Sc - -
Di, 19.02. 7:00 7200 m 7/8 0/8 - - Cs
Di, 19.02. 1:00 7200 m 5/8 0/8 - - Ci
Mo, 18.02. 19:00 3900 m 1/8 1/8 - Ac -
Ortszeit Bedeckungsgrad in Achtel und Wolkenuntergrenze
Mi, 20.02. 14:30 1(870m) 7(5400m) 7(9000m)
Mi, 20.02. 14:20 1(870m) 7(5400m) 7(9000m)
Mi, 20.02. 14:10 2(870m) 7(9000m) 8(9000m)
Mi, 20.02. 14:00 3(810m) 4(4500m)
Mi, 20.02. 13:50 -
Mi, 20.02. 13:40 -
Mi, 20.02. 13:30 3(750m) 4(3900m) 8(10500m)
Mi, 20.02. 13:00 3(720m) 3(1500m) 8(5400m)
Mi, 20.02. 12:30 2(660m) 4(1800m) 5(7800m)
Mi, 20.02. 12:00 2(1080m) 5(1800m) 5(7800m)
Mi, 20.02. 11:30 7(1800m) 8(6000m)
Ortszeit Luftdruck NN (hPa) Tendenz (hPa in 3 Std.)
Mi, 20.02. 13:00 1021 + 0,8
Mi, 20.02. 7:00 1019 + 0,9
Mi, 20.02. 1:00 1018 + 0,7
Di, 19.02. 19:00 1016 + 0,5
Di, 19.02. 13:00 1016 + 0,6
Di, 19.02. 7:00 1014 0,0
Di, 19.02. 1:00 1015 - 1,0
Mo, 18.02. 19:00 1017 - 0,8
Ortszeit Luftdruck NN (hPa) Tendenz (hPa in 3 Std.)
Mi, 20.02. 14:30 1022 0,0
Mi, 20.02. 14:20 1022 keine Meldung
Mi, 20.02. 14:10 1022 keine Meldung
Mi, 20.02. 14:00 1022 + 0,2
Mi, 20.02. 13:50 1022 keine Meldung
Mi, 20.02. 13:40 1021 keine Meldung
Mi, 20.02. 13:30 1022 + 0,3
Mi, 20.02. 13:00 1021 + 0,8
Mi, 20.02. 12:30 1022 + 1,3
Mi, 20.02. 12:00 1022 + 1,7
Mi, 20.02. 11:30 1022 + 1,9
Ortszeit Schneehöhe (cm)
Mi, 20.02. 13:00 0
Mi, 20.02. 7:00 0
Mi, 20.02. 1:00 0
Di, 19.02. 19:00 0
Di, 19.02. 13:00 0
Di, 19.02. 7:00 0
Di, 19.02. 1:00 0
Mo, 18.02. 19:00 0
Ortszeit Schneehöhe (cm)
Mi, 20.02. 14:30 -
Mi, 20.02. 14:20 -
Mi, 20.02. 14:10 -
Mi, 20.02. 14:00 -
Mi, 20.02. 13:50 -
Mi, 20.02. 13:40 -
Mi, 20.02. 13:30 -
Mi, 20.02. 13:00 0
Mi, 20.02. 12:30 -
Mi, 20.02. 12:00 -
Mi, 20.02. 11:30 -
Link zu dieser Seite / Seite empfehlen

Das Wetter in ...